Mount Air, Ohio
Current Conditions -  °F | °C
As of 5:53 PM on Tuesday 21 Oct 2014 (Local Time) from KOSU Reporting Station
Overcast Overcast  
Wind Chill: 43°   Ceiling: 3500
Heat Index: 48°   Visibility: 10mi
Dew Point: 41°   Wind: 10mph
Humidity: 77%   Direction: 340°NNW
Pressure: 30.07"   Gusts: NA
Location:  40.0994°N, 83.0166°W
Report Text: KOSU 212153Z 34009KT 10SM SCT029 OVC035 09/05 A3007 RMK AO2 SLP186 T00890050
Loading
Personal Weather Stations






























Interactive Weather Map
Tropical Storm Tracking
New forecast layout! Learn more

10-Day Weather Forecast

Advertisements
Track Severe Weather on mobile